createdAt,value
2018-08-25T00:01:16.396Z,99324.32
2018-08-25T00:03:44.887Z,99319.02
2018-08-25T00:06:13.335Z,99317.86
2018-08-25T00:08:41.813Z,99308.73
2018-08-25T00:11:10.758Z,99305.38
2018-08-25T00:13:39.393Z,99304.72
2018-08-25T00:16:08.014Z,99294.13
2018-08-25T00:18:36.563Z,99295.45
2018-08-25T00:21:05.137Z,99291.63
2018-08-25T00:23:33.648Z,99299.64
2018-08-25T00:26:02.175Z,99288.72
2018-08-25T00:28:30.638Z,99282.25
2018-08-25T00:31:04.296Z,99278.82
2018-08-25T00:33:32.762Z,99276.23
2018-08-25T00:36:01.806Z,99273.20
2018-08-25T00:38:30.318Z,99275.78
2018-08-25T00:40:58.774Z,99268.38
2018-08-25T00:43:27.261Z,99261.82
2018-08-25T00:45:55.777Z,99259.72
2018-08-25T00:48:24.329Z,99265.23
2018-08-25T00:50:52.873Z,99264.03
2018-08-25T00:53:21.352Z,99251.82
2018-08-25T00:55:49.888Z,99259.05
2018-08-25T00:58:18.444Z,99249.91
2018-08-25T01:00:47.149Z,99243.77
2018-08-25T01:03:15.582Z,99242.83
2018-08-25T01:05:44.033Z,99236.15
2018-08-25T01:08:12.519Z,99242.67
2018-08-25T01:10:41.038Z,99234.67
2018-08-25T01:13:09.856Z,99226.00
2018-08-25T01:15:38.383Z,99231.08
2018-08-25T01:18:07.045Z,99236.38
2018-08-25T01:20:35.671Z,99238.97
2018-08-25T01:23:04.200Z,99233.67
2018-08-25T01:25:32.758Z,99225.63
2018-08-25T01:28:01.315Z,99225.62
2018-08-25T01:30:29.835Z,99222.97
2018-08-25T01:32:58.332Z,99213.59
2018-08-25T01:35:26.846Z,99212.00
2018-08-25T01:37:55.333Z,99214.61
2018-08-25T01:40:23.842Z,99212.44
2018-08-25T01:42:52.318Z,99197.78
2018-08-25T01:45:20.830Z,99198.20
2018-08-25T01:47:49.372Z,99193.42
2018-08-25T01:50:17.917Z,99198.33
2018-08-25T01:52:46.439Z,99189.94
2018-08-25T01:55:15.126Z,99189.00
2018-08-25T01:57:43.648Z,99183.31
2018-08-25T02:00:12.357Z,99171.30
2018-08-25T02:02:40.895Z,99169.59
2018-08-25T02:05:09.541Z,99163.45
2018-08-25T02:07:38.047Z,99166.23
2018-08-25T02:12:57.253Z,99155.73
2018-08-25T02:15:25.846Z,99150.27
2018-08-25T02:17:54.455Z,99147.23
2018-08-25T02:20:23.091Z,99142.72
2018-08-25T02:22:51.791Z,99137.27
2018-08-25T02:25:20.283Z,99142.40
2018-08-25T02:27:48.739Z,99139.36
2018-08-25T02:30:17.336Z,99150.83
2018-08-25T02:32:45.824Z,99144.92
2018-08-25T02:35:14.455Z,99135.17
2018-08-25T02:37:42.949Z,99133.23
2018-08-25T02:40:11.805Z,99121.31
2018-08-25T02:42:40.294Z,99117.50
2018-08-25T02:45:08.804Z,99117.28
2018-08-25T02:47:37.371Z,99106.37
2018-08-25T02:50:05.820Z,99116.12
2018-08-25T02:52:34.334Z,99122.64
2018-08-25T02:55:02.886Z,99107.69
2018-08-25T02:57:31.467Z,99106.37
2018-08-25T03:00:00.000Z,99110.17
2018-08-25T03:02:28.555Z,99114.56
2018-08-25T03:04:57.068Z,99108.72
2018-08-25T03:07:25.604Z,99098.06
2018-08-25T03:09:54.121Z,99094.84
2018-08-25T03:12:22.653Z,99090.25
2018-08-25T03:14:51.178Z,99090.31
2018-08-25T03:17:19.810Z,99087.83
2018-08-25T03:19:48.338Z,99093.45
2018-08-25T03:22:16.840Z,99094.45
2018-08-25T03:24:45.279Z,99106.66
2018-08-25T03:27:13.887Z,99110.61
2018-08-25T03:29:42.384Z,99111.98
2018-08-25T03:32:10.862Z,99112.94
2018-08-25T03:34:39.358Z,99130.72
2018-08-25T03:37:07.943Z,99122.09
2018-08-25T03:39:36.478Z,99108.52
2018-08-25T03:42:05.121Z,99109.50
2018-08-25T03:44:33.600Z,99106.02
2018-08-25T03:47:02.128Z,99104.95
2018-08-25T03:49:30.681Z,99106.81
2018-08-25T03:51:59.247Z,99109.13
2018-08-25T03:54:27.781Z,99104.58
2018-08-25T03:56:56.252Z,99093.62
2018-08-25T03:59:24.731Z,99096.91
2018-08-25T04:01:53.192Z,99095.34
2018-08-25T04:04:21.730Z,99086.41
2018-08-25T04:06:50.219Z,99081.53
2018-08-25T04:09:18.768Z,99093.42
2018-08-25T04:11:47.197Z,99088.28
2018-08-25T04:14:15.676Z,99095.53
2018-08-25T04:16:44.265Z,99093.03
2018-08-25T04:19:21.331Z,99099.23
2018-08-25T04:21:50.618Z,99112.97
2018-08-25T04:24:19.052Z,99105.89
2018-08-25T04:26:47.502Z,99098.56
2018-08-25T04:29:15.966Z,99095.23
2018-08-25T04:31:44.450Z,99104.61
2018-08-25T04:34:13.036Z,99093.77
2018-08-25T04:36:41.556Z,99091.52
2018-08-25T04:39:11.523Z,99087.95
2018-08-25T04:41:39.994Z,99082.62
2018-08-25T04:44:08.852Z,99082.67
2018-08-25T04:46:37.370Z,99080.32
2018-08-25T04:49:06.144Z,99085.46
2018-08-25T04:51:34.755Z,99096.79
2018-08-25T04:54:03.502Z,99102.27
2018-08-25T04:56:32.215Z,99096.85
2018-08-25T04:59:00.710Z,99099.44
2018-08-25T05:01:29.271Z,99097.72
2018-08-25T05:03:57.841Z,99098.17
2018-08-25T05:06:26.389Z,99109.21
2018-08-25T05:08:54.937Z,99098.65
2018-08-25T05:11:23.418Z,99099.88
2018-08-25T05:13:52.021Z,99099.05
2018-08-25T05:16:20.539Z,99103.84
2018-08-25T05:18:49.012Z,99103.54
2018-08-25T05:21:17.484Z,99118.91
2018-08-25T05:23:46.015Z,99114.49
2018-08-25T05:26:14.510Z,99113.70
2018-08-25T05:28:43.046Z,99129.20
2018-08-25T05:31:11.553Z,99125.11
2018-08-25T05:33:40.059Z,99130.78
2018-08-25T05:36:08.600Z,99128.23
2018-08-25T05:38:37.999Z,99132.38
2018-08-25T05:41:06.546Z,99139.96
2018-08-25T05:43:35.157Z,99130.53
2018-08-25T05:46:03.759Z,99134.63
2018-08-25T05:48:32.667Z,99133.22
2018-08-25T05:51:01.122Z,99143.87
2018-08-25T05:53:29.686Z,99132.19
2018-08-25T05:55:58.166Z,99147.02
2018-08-25T05:58:26.704Z,99148.36
2018-08-25T06:00:55.214Z,99146.20
2018-08-25T06:03:23.695Z,99146.99
2018-08-25T06:05:52.155Z,99152.36
2018-08-25T06:08:20.659Z,99143.42
2018-08-25T06:10:49.109Z,99154.33
2018-08-25T06:13:17.631Z,99157.90
2018-08-25T06:15:46.150Z,99161.02
2018-08-25T06:18:14.827Z,99155.98
2018-08-25T06:20:43.267Z,99161.08
2018-08-25T06:23:11.795Z,99166.50
2018-08-25T06:25:40.358Z,99163.33
2018-08-25T06:28:08.973Z,99161.31
2018-08-25T06:30:37.538Z,99168.24
2018-08-25T06:33:06.418Z,99169.73
2018-08-25T06:35:34.927Z,99171.03
2018-08-25T06:38:03.689Z,99177.08
2018-08-25T06:40:32.267Z,99181.11
2018-08-25T06:43:00.745Z,99179.63
2018-08-25T06:45:29.312Z,99175.60
2018-08-25T06:47:57.964Z,99189.28
2018-08-25T06:50:26.547Z,99183.69
2018-08-25T06:52:55.108Z,99186.79
2018-08-25T06:55:23.661Z,99184.47
2018-08-25T06:57:52.195Z,99192.80
2018-08-25T07:00:20.708Z,99192.98
2018-08-25T07:02:49.173Z,99187.59
2018-08-25T07:05:17.994Z,99179.61
2018-08-25T07:07:46.475Z,99175.92
2018-08-25T07:10:15.205Z,99185.75
2018-08-25T07:12:43.748Z,99185.02
2018-08-25T07:15:12.183Z,99199.34
2018-08-25T07:17:40.714Z,99194.98
2018-08-25T07:20:09.175Z,99192.09
2018-08-25T07:22:37.638Z,99201.11
2018-08-25T07:25:06.795Z,99203.47
2018-08-25T07:27:35.263Z,99200.95
2018-08-25T07:30:03.784Z,99199.13
2018-08-25T07:32:32.302Z,99207.91
2018-08-25T07:35:00.847Z,99206.69
2018-08-25T07:37:29.350Z,99202.59
2018-08-25T07:39:57.879Z,99208.01
2018-08-25T07:42:26.429Z,99211.62
2018-08-25T07:44:55.009Z,99207.72
2018-08-25T07:47:23.516Z,99222.20
2018-08-25T07:49:52.105Z,99223.06
2018-08-25T07:52:20.525Z,99221.20
2018-08-25T07:54:48.995Z,99196.72
2018-08-25T07:57:17.549Z,99227.49
2018-08-25T07:59:46.169Z,99231.61
2018-08-25T08:02:14.733Z,99226.95
2018-08-25T08:04:43.574Z,99229.72
2018-08-25T08:07:11.995Z,99234.74
2018-08-25T08:09:47.176Z,99238.95
2018-08-25T08:12:15.829Z,98849.48
2018-08-25T08:14:44.290Z,99247.16
2018-08-25T08:17:12.804Z,99247.02
2018-08-25T08:19:41.406Z,99249.98
2018-08-25T08:22:09.970Z,99252.64
2018-08-25T08:24:38.452Z,99251.09
2018-08-25T08:27:07.142Z,99269.02
2018-08-25T08:29:35.751Z,99254.83
2018-08-25T08:32:04.241Z,99259.95
2018-08-25T08:34:32.773Z,99256.89
2018-08-25T08:37:01.280Z,99263.08
2018-08-25T08:39:29.852Z,99261.25
2018-08-25T08:41:58.301Z,99259.08
2018-08-25T08:44:26.867Z,99258.12
2018-08-25T08:46:55.433Z,99266.69
2018-08-25T08:49:23.899Z,99269.96
2018-08-25T08:51:52.320Z,99272.00
2018-08-25T08:54:20.953Z,99266.05
2018-08-25T08:56:49.434Z,99264.45
2018-08-25T08:59:17.898Z,99279.17
2018-08-25T09:01:46.904Z,99281.16
2018-08-25T09:04:15.496Z,99283.78
2018-08-25T09:06:43.979Z,99287.11
2018-08-25T09:09:12.521Z,99286.38
2018-08-25T09:11:41.451Z,99293.55
2018-08-25T09:14:09.937Z,99298.88
2018-08-25T09:16:38.449Z,99298.17
2018-08-25T09:19:07.019Z,99304.88
2018-08-25T09:21:35.537Z,99311.41
2018-08-25T09:24:04.127Z,99308.16
2018-08-25T09:26:32.648Z,99307.83
2018-08-25T09:29:01.254Z,99307.97
2018-08-25T09:31:29.823Z,99310.23
2018-08-25T09:33:58.367Z,99316.23
2018-08-25T09:36:27.043Z,99165.55
2018-08-25T09:38:55.599Z,99312.78
2018-08-25T09:41:24.090Z,99317.94
2018-08-25T09:43:52.588Z,99320.03
2018-08-25T09:46:21.080Z,99322.25
2018-08-25T09:48:49.827Z,99325.30
2018-08-25T09:51:18.291Z,99320.03
2018-08-25T09:53:46.765Z,99327.85
2018-08-25T09:56:16.541Z,99324.60
2018-08-25T09:58:45.198Z,99326.98
2018-08-25T10:01:19.111Z,99326.05
2018-08-25T10:03:48.004Z,99332.71
2018-08-25T10:06:16.589Z,99334.52
2018-08-25T10:08:45.467Z,99333.47
2018-08-25T10:11:14.053Z,99333.61
2018-08-25T10:13:42.698Z,99330.95
2018-08-25T10:16:11.391Z,99336.77
2018-08-25T10:18:39.960Z,99341.19
2018-08-25T10:21:08.799Z,99339.68
2018-08-25T10:23:37.480Z,99335.78
2018-08-25T10:26:06.173Z,99335.84
2018-08-25T10:28:34.753Z,99342.69
2018-08-25T10:31:03.236Z,99350.30
2018-08-25T10:33:31.739Z,99345.56
2018-08-25T10:36:00.294Z,99340.40
2018-08-25T10:38:28.747Z,99344.41
2018-08-25T10:40:57.314Z,99341.27
2018-08-25T10:43:25.797Z,99336.91
2018-08-25T10:45:54.318Z,99339.14
2018-08-25T10:48:22.757Z,99339.56
2018-08-25T10:50:51.331Z,99337.26
2018-08-25T10:53:20.349Z,99334.11
2018-08-25T10:55:48.872Z,99345.61
2018-08-25T10:58:17.403Z,99340.32
2018-08-25T11:00:46.067Z,99341.55
2018-08-25T11:03:14.556Z,99340.24
2018-08-25T11:05:43.159Z,99351.40
2018-08-25T11:08:11.712Z,99341.69
2018-08-25T11:10:40.684Z,99338.98
2018-08-25T11:13:09.231Z,99346.43
2018-08-25T11:15:37.791Z,99343.52
2018-08-25T11:18:07.034Z,99342.94
2018-08-25T11:20:35.633Z,99350.63
2018-08-25T11:23:04.265Z,99345.02
2018-08-25T11:25:32.787Z,99343.80
2018-08-25T11:28:01.311Z,99354.13
2018-08-25T11:30:29.830Z,99353.20
2018-08-25T11:32:58.420Z,99347.02
2018-08-25T11:35:26.957Z,99355.97
2018-08-25T11:37:55.475Z,99351.70
2018-08-25T11:40:24.010Z,99347.63
2018-08-25T11:42:52.559Z,99344.12
2018-08-25T11:45:21.095Z,99337.48
2018-08-25T11:47:49.677Z,99346.00
2018-08-25T11:50:18.239Z,99350.28
2018-08-25T11:52:46.776Z,99348.94
2018-08-25T11:55:15.391Z,99346.65
2018-08-25T11:57:44.010Z,99354.28
2018-08-25T12:00:12.519Z,99371.96
2018-08-25T12:02:41.091Z,99373.41
2018-08-25T12:05:09.630Z,99367.36
2018-08-25T12:07:38.199Z,99355.19
2018-08-25T12:10:06.843Z,99356.65
2018-08-25T12:12:35.413Z,99357.53
2018-08-25T12:15:03.992Z,99357.64
2018-08-25T12:17:32.689Z,99359.96
2018-08-25T12:20:01.232Z,99367.30
2018-08-25T12:22:29.729Z,99366.85
2018-08-25T12:24:58.272Z,99361.64
2018-08-25T12:27:26.867Z,99379.28
2018-08-25T12:29:55.469Z,99378.44
2018-08-25T12:32:24.028Z,99383.09
2018-08-25T12:34:52.527Z,99365.11
2018-08-25T12:37:21.033Z,99369.66
2018-08-25T12:39:49.496Z,99364.91
2018-08-25T12:42:17.990Z,99369.95
2018-08-25T12:44:46.435Z,99374.89
2018-08-25T12:47:14.975Z,99371.22
2018-08-25T12:49:43.495Z,99371.63
2018-08-25T12:52:12.685Z,99377.20
2018-08-25T12:54:41.428Z,99375.99
2018-08-25T12:57:10.323Z,99379.80
2018-08-25T12:59:47.170Z,99379.23
2018-08-25T13:02:15.835Z,99380.22
2018-08-25T13:04:44.374Z,99385.34
2018-08-25T13:07:14.480Z,99386.91
2018-08-25T13:09:43.912Z,99391.74
2018-08-25T13:12:13.119Z,99400.70
2018-08-25T13:14:41.731Z,99414.47
2018-08-25T13:17:10.237Z,99428.98
2018-08-25T13:19:38.881Z,99430.50
2018-08-25T13:22:07.595Z,99439.02
2018-08-25T13:24:36.135Z,99437.28
2018-08-25T13:27:04.881Z,99438.58
2018-08-25T13:29:33.475Z,99433.41
2018-08-25T13:32:02.089Z,99431.86
2018-08-25T13:34:31.252Z,99430.20
2018-08-25T13:37:00.042Z,99435.59
2018-08-25T13:39:29.610Z,99430.58
2018-08-25T13:41:58.164Z,99430.98
2018-08-25T13:44:26.687Z,99426.56
2018-08-25T13:46:55.308Z,99421.77
2018-08-25T13:49:23.851Z,99422.15
2018-08-25T13:51:52.358Z,99423.47
2018-08-25T13:54:22.383Z,99420.68
2018-08-25T13:56:51.244Z,99418.31
2018-08-25T13:59:20.823Z,99421.67
2018-08-25T14:01:49.316Z,99430.02
2018-08-25T14:04:17.916Z,99438.77
2018-08-25T14:06:47.377Z,99445.72
2018-08-25T14:09:15.937Z,99447.34
2018-08-25T14:11:44.759Z,99454.67
2018-08-25T14:14:13.368Z,99463.31
2018-08-25T14:16:41.904Z,99464.53
2018-08-25T14:19:10.583Z,99461.67
2018-08-25T14:21:39.134Z,99456.88
2018-08-25T14:24:07.740Z,99451.36
2018-08-25T14:26:36.251Z,99449.61
2018-08-25T14:29:04.912Z,99446.86
2018-08-25T14:31:33.433Z,99443.99
2018-08-25T14:34:01.901Z,99447.99
2018-08-25T14:36:30.426Z,99454.66
2018-08-25T14:38:58.906Z,99464.61
2018-08-25T14:41:27.489Z,99460.98
2018-08-25T14:43:56.024Z,99458.58
2018-08-25T14:46:24.420Z,99349.73
2018-08-25T14:48:52.839Z,99462.58
2018-08-25T14:51:21.356Z,99464.75
2018-08-25T14:53:49.848Z,99464.67
2018-08-25T14:56:18.374Z,99470.03
2018-08-25T14:58:46.824Z,99484.11
2018-08-25T15:01:15.266Z,99489.53
2018-08-25T15:03:43.791Z,99497.11
2018-08-25T15:06:12.310Z,99495.93
2018-08-25T15:08:41.087Z,99496.09
2018-08-25T15:11:09.580Z,99499.63
2018-08-25T15:13:38.220Z,99506.77
2018-08-25T15:16:06.813Z,99507.75
2018-08-25T15:18:35.486Z,99502.81
2018-08-25T15:21:04.087Z,99504.78
2018-08-25T15:23:32.633Z,99512.67
2018-08-25T15:26:01.121Z,99506.56
2018-08-25T15:28:29.717Z,99517.55
2018-08-25T15:30:58.314Z,99519.39
2018-08-25T15:33:26.896Z,99517.98
2018-08-25T15:35:55.565Z,99521.25
2018-08-25T15:38:24.235Z,99515.86
2018-08-25T15:40:52.868Z,99521.32
2018-08-25T15:43:21.420Z,99525.49
2018-08-25T15:45:49.985Z,99532.67
2018-08-25T15:48:18.602Z,99534.83
2018-08-25T15:50:47.141Z,99539.56
2018-08-25T15:53:15.880Z,99535.82
2018-08-25T15:55:44.517Z,99540.20
2018-08-25T15:58:13.105Z,99538.45
2018-08-25T16:00:41.703Z,99536.41
2018-08-25T16:03:10.231Z,99540.44
2018-08-25T16:05:38.827Z,99541.39
2018-08-25T16:08:07.414Z,99536.70
2018-08-25T16:10:36.011Z,99535.91
2018-08-25T16:13:04.594Z,99538.60
2018-08-25T16:15:33.133Z,99543.02
2018-08-25T16:18:01.947Z,99548.64
2018-08-25T16:20:30.969Z,99547.95
2018-08-25T16:22:59.476Z,99553.31
2018-08-25T16:25:28.434Z,99556.94
2018-08-25T16:27:57.154Z,99554.52
2018-08-25T16:30:25.923Z,99437.09
2018-08-25T16:32:54.543Z,99564.02
2018-08-25T16:35:23.118Z,99567.37
2018-08-25T16:37:51.739Z,99572.31
2018-08-25T16:40:20.407Z,99581.78
2018-08-25T16:42:48.931Z,99574.98
2018-08-25T16:45:17.535Z,99570.61
2018-08-25T16:47:46.060Z,99575.48
2018-08-25T16:50:14.631Z,99571.10
2018-08-25T16:52:43.643Z,99573.48
2018-08-25T16:55:12.462Z,99577.65
2018-08-25T16:57:41.165Z,99572.75
2018-08-25T17:00:09.854Z,99575.73
2018-08-25T17:02:38.508Z,99580.59
2018-08-25T17:05:07.167Z,99580.06
2018-08-25T17:07:35.705Z,99586.61
2018-08-25T17:10:04.323Z,99581.55
2018-08-25T17:12:33.039Z,99587.49
2018-08-25T17:15:01.598Z,99587.97
2018-08-25T17:17:30.937Z,99485.00
2018-08-25T17:19:59.511Z,99598.98
2018-08-25T17:22:28.225Z,99602.91
2018-08-25T17:24:57.691Z,99600.16
2018-08-25T17:30:05.989Z,99599.86
2018-08-25T17:32:34.617Z,99603.26
2018-08-25T17:35:03.601Z,99610.44
2018-08-25T17:37:32.199Z,99616.12
2018-08-25T17:40:01.288Z,99634.26
2018-08-25T17:42:29.883Z,99619.94
2018-08-25T17:44:58.390Z,99620.63
2018-08-25T17:47:27.244Z,99629.66
2018-08-25T17:49:55.967Z,99630.73
2018-08-25T17:52:24.547Z,99636.31
2018-08-25T17:54:53.198Z,99637.25
2018-08-25T17:57:21.931Z,99647.95
2018-08-25T17:59:50.511Z,99649.34
2018-08-25T18:02:25.353Z,99651.51
2018-08-25T18:04:54.136Z,99652.78
2018-08-25T18:07:22.701Z,99664.27
2018-08-25T18:09:53.437Z,99668.70
2018-08-25T18:12:23.042Z,99678.04
2018-08-25T18:14:53.080Z,99681.57
2018-08-25T18:17:22.530Z,99677.14
2018-08-25T18:19:51.539Z,99687.87
2018-08-25T18:22:20.143Z,99688.86
2018-08-25T18:24:48.697Z,99689.15
2018-08-25T18:27:17.538Z,99690.53
2018-08-25T18:29:46.400Z,99689.02
2018-08-25T18:32:15.070Z,99695.36
2018-08-25T18:34:43.761Z,99705.97
2018-08-25T18:37:12.373Z,99702.50
2018-08-25T18:39:41.108Z,99708.34
2018-08-25T18:42:09.735Z,99711.08
2018-08-25T18:44:38.361Z,99705.69
2018-08-25T18:47:06.975Z,99738.92
2018-08-25T18:49:35.836Z,99712.13
2018-08-25T18:52:04.447Z,99715.89
2018-08-25T18:54:33.013Z,99716.83
2018-08-25T18:57:01.549Z,99722.27
2018-08-25T18:59:30.252Z,99718.53
2018-08-25T19:01:59.042Z,99725.75
2018-08-25T19:04:27.585Z,99736.94
2018-08-25T19:06:56.150Z,99738.11
2018-08-25T19:12:05.271Z,99741.21
2018-08-25T19:14:34.437Z,99746.61
2018-08-25T19:17:03.673Z,99743.12
2018-08-25T19:19:32.834Z,99737.87
2018-08-25T19:22:01.743Z,99748.20
2018-08-25T19:24:30.461Z,99746.27
2018-08-25T19:27:02.527Z,99748.71
2018-08-25T19:29:31.437Z,99757.94
2018-08-25T19:32:00.628Z,99759.61
2018-08-25T19:34:31.146Z,99759.16
2018-08-25T19:37:00.435Z,99761.33
2018-08-25T19:39:29.672Z,99760.82
2018-08-25T19:41:59.861Z,99761.16
2018-08-25T19:44:28.474Z,99762.77
2018-08-25T19:46:57.258Z,99764.81
2018-08-25T19:49:25.928Z,99768.63
2018-08-25T19:51:54.484Z,99768.39
2018-08-25T19:54:23.041Z,99772.08
2018-08-25T19:56:52.162Z,99769.71
2018-08-25T19:59:20.711Z,99772.11
2018-08-25T20:01:49.891Z,99770.98
2018-08-25T20:04:18.564Z,99776.43
2018-08-25T20:06:47.193Z,99778.38
2018-08-25T20:09:15.766Z,99772.48
2018-08-25T20:11:44.956Z,99762.95
2018-08-25T20:14:13.588Z,99782.03
2018-08-25T20:16:42.256Z,99790.95
2018-08-25T20:19:10.793Z,99788.93
2018-08-25T20:21:40.227Z,99790.40
2018-08-25T20:24:08.958Z,99795.72
2018-08-25T20:26:37.649Z,99798.47
2018-08-25T20:29:06.240Z,99803.42
2018-08-25T20:31:34.959Z,99802.68
2018-08-25T20:34:03.741Z,99801.03
2018-08-25T20:36:32.467Z,99809.91
2018-08-25T20:39:01.110Z,99807.77
2018-08-25T20:41:29.817Z,99810.04
2018-08-25T20:43:58.492Z,99813.19
2018-08-25T20:46:27.106Z,99817.26
2018-08-25T20:48:55.716Z,99819.13
2018-08-25T20:51:24.489Z,99821.90
2018-08-25T20:53:53.143Z,99821.62
2018-08-25T20:56:21.831Z,99826.20
2018-08-25T20:58:50.490Z,99822.81
2018-08-25T21:01:19.101Z,99822.94
2018-08-25T21:03:47.697Z,99822.62
2018-08-25T21:06:16.354Z,99824.45
2018-08-25T21:08:44.988Z,99822.80
2018-08-25T21:11:13.907Z,99820.28
2018-08-25T21:13:42.489Z,99825.19
2018-08-25T21:16:11.316Z,99821.30
2018-08-25T21:18:40.287Z,99819.59
2018-08-25T21:21:08.881Z,99821.45
2018-08-25T21:23:37.658Z,99817.63
2018-08-25T21:26:06.624Z,99820.36
2018-08-25T21:28:35.238Z,99821.83
2018-08-25T21:31:03.970Z,99822.33
2018-08-25T21:33:32.646Z,99822.89
2018-08-25T21:36:01.323Z,99823.92
2018-08-25T21:38:30.114Z,99828.50
2018-08-25T21:40:58.715Z,99828.59
2018-08-25T21:43:27.615Z,99825.67
2018-08-25T21:45:56.209Z,99822.27
2018-08-25T21:48:24.833Z,99825.81
2018-08-25T21:50:53.510Z,99823.76
2018-08-25T21:53:22.187Z,99819.92
2018-08-25T21:55:50.793Z,99823.91
2018-08-25T21:58:19.387Z,99825.72
2018-08-25T22:00:53.101Z,99820.03
2018-08-25T22:03:21.639Z,99740.95
2018-08-25T22:05:51.171Z,99827.17
2018-08-25T22:08:19.742Z,99829.89
2018-08-25T22:10:48.293Z,99828.61
2018-08-25T22:13:16.813Z,99830.42
2018-08-25T22:15:45.462Z,99830.91
2018-08-25T22:18:14.077Z,99832.73
2018-08-25T22:20:42.687Z,99829.62
2018-08-25T22:23:11.203Z,99829.69
2018-08-25T22:25:39.897Z,99831.02
2018-08-25T22:28:08.436Z,99834.16
2018-08-25T22:30:37.021Z,99839.42
2018-08-25T22:33:05.535Z,99835.88
2018-08-25T22:35:34.414Z,99837.20
2018-08-25T22:38:03.020Z,99841.09
2018-08-25T22:40:31.737Z,99841.54
2018-08-25T22:43:00.282Z,99847.22
2018-08-25T22:45:28.829Z,99846.34
2018-08-25T22:47:57.406Z,99820.81
2018-08-25T22:50:25.968Z,99844.61
2018-08-25T22:52:54.404Z,99839.34
2018-08-25T22:55:25.470Z,99846.34
2018-08-25T22:57:54.128Z,99854.25
2018-08-25T23:00:22.634Z,99853.86
2018-08-25T23:02:51.174Z,99850.81
2018-08-25T23:05:19.718Z,99854.38
2018-08-25T23:07:48.238Z,99855.26
2018-08-25T23:10:16.750Z,99854.02
2018-08-25T23:12:45.250Z,99856.25
2018-08-25T23:15:13.840Z,99852.75
2018-08-25T23:17:42.315Z,99855.86
2018-08-25T23:20:10.939Z,99862.03
2018-08-25T23:22:39.515Z,99863.40
2018-08-25T23:25:08.061Z,99860.77
2018-08-25T23:27:36.557Z,99861.67
2018-08-25T23:30:05.122Z,99866.11
2018-08-25T23:32:33.738Z,99869.23
2018-08-25T23:35:02.321Z,99867.56
2018-08-25T23:37:30.899Z,99866.79
2018-08-25T23:39:59.453Z,99867.25
2018-08-25T23:42:27.982Z,99870.34
2018-08-25T23:44:56.548Z,99868.72
2018-08-25T23:47:25.089Z,99843.18
2018-08-25T23:49:53.608Z,99863.91
2018-08-25T23:52:22.129Z,99859.55
2018-08-25T23:54:50.655Z,99863.55
2018-08-25T23:57:19.163Z,99867.55
2018-08-25T23:59:47.730Z,99868.45
